createdAt,value
2017-02-24T00:00:02.093Z,44.58
2017-02-24T00:00:06.438Z,44.38
2017-02-24T00:00:10.791Z,44.48
2017-02-24T00:00:15.290Z,44.48
2017-02-24T00:00:20.012Z,44.29
2017-02-24T00:00:24.660Z,44.1
2017-02-24T00:00:29.321Z,44.38
2017-02-24T00:00:33.972Z,44.48
2017-02-24T00:00:38.622Z,44.29
2017-02-24T00:00:43.267Z,44.29
2017-02-24T00:00:47.916Z,44.29
2017-02-24T00:00:52.570Z,44.38
2017-02-24T00:00:57.202Z,44.2
2017-02-24T00:01:01.827Z,44.2
2017-02-24T00:01:06.485Z,44.29
2017-02-24T00:01:11.134Z,44.29
2017-02-24T00:01:15.486Z,44.1
2017-02-24T00:01:20.120Z,44.2
2017-02-24T00:01:24.771Z,44.1
2017-02-24T00:01:29.407Z,44.38
2017-02-24T00:01:34.049Z,44.2
2017-02-24T00:01:38.724Z,44.48
2017-02-24T00:01:43.375Z,44.48
2017-02-24T00:01:48.019Z,44.38
2017-02-24T00:01:52.650Z,44.58
2017-02-24T00:01:57.275Z,44.67
2017-02-24T00:02:01.944Z,44.38
2017-02-24T00:02:06.594Z,44.48
2017-02-24T00:02:11.098Z,44.48
2017-02-24T00:02:15.594Z,44.2
2017-02-24T00:02:20.232Z,44.2
2017-02-24T00:02:24.880Z,44.48
2017-02-24T00:02:29.514Z,44.38
2017-02-24T00:02:34.146Z,44.38
2017-02-24T00:02:38.796Z,44.48
2017-02-24T00:02:43.428Z,44.38
2017-02-24T00:02:48.074Z,44.48
2017-02-24T00:02:52.585Z,44.29
2017-02-24T00:02:57.252Z,44.48
2017-02-24T00:03:02.255Z,44.29
2017-02-24T00:03:06.901Z,44.77
2017-02-24T00:03:11.555Z,44.77
2017-02-24T00:03:16.058Z,44.87
2017-02-24T00:03:20.708Z,44.77
2017-02-24T00:03:25.218Z,44.58
2017-02-24T00:03:29.870Z,44.87
2017-02-24T00:03:34.497Z,44.58
2017-02-24T00:03:38.978Z,44.58
2017-02-24T00:03:43.611Z,44.38
2017-02-24T00:03:48.292Z,44.29
2017-02-24T00:03:52.938Z,44.38
2017-02-24T00:03:57.599Z,44.38
2017-02-24T00:04:02.248Z,44.29
2017-02-24T00:04:06.735Z,44.46
2017-02-24T00:04:11.245Z,44.58
2017-02-24T00:04:15.764Z,44.58
2017-02-24T00:04:20.268Z,44.1
2017-02-24T00:04:24.912Z,44.29
2017-02-24T00:04:29.562Z,44.1
2017-02-24T00:04:34.206Z,44.58
2017-02-24T00:04:38.706Z,44.38
2017-02-24T00:04:43.287Z,44.48
2017-02-24T00:04:47.930Z,44.38
2017-02-24T00:04:52.556Z,44.38
2017-02-24T00:04:57.206Z,44.38
2017-02-24T00:05:02.130Z,44.38
2017-02-24T00:05:06.617Z,44.48
2017-02-24T00:05:11.260Z,44.58
2017-02-24T00:05:15.626Z,44.38
2017-02-24T00:05:20.281Z,44.48
2017-02-24T00:05:24.929Z,44.48
2017-02-24T00:05:29.439Z,44.58
2017-02-24T00:05:34.083Z,44.67
2017-02-24T00:05:38.719Z,44.87
2017-02-24T00:05:43.210Z,44.77
2017-02-24T00:05:47.852Z,44.67
2017-02-24T00:05:52.502Z,44.77
2017-02-24T00:05:57.137Z,44.77
2017-02-24T00:06:01.790Z,44.65
2017-02-24T00:06:06.434Z,44.67
2017-02-24T00:06:10.663Z,44.77
2017-02-24T00:06:15.168Z,44.77
2017-02-24T00:06:19.669Z,44.74
2017-02-24T00:06:24.152Z,44.67
2017-02-24T00:06:28.807Z,44.77
2017-02-24T00:06:33.447Z,44.77
2017-02-24T00:06:37.949Z,44.67
2017-02-24T00:06:42.354Z,44.77
2017-02-24T00:06:47.020Z,44.67
2017-02-24T00:06:51.655Z,44.58
2017-02-24T00:06:56.294Z,44.67
2017-02-24T00:07:00.923Z,44.67
2017-02-24T00:07:05.650Z,44.67
2017-02-24T00:07:10.295Z,44.87
2017-02-24T00:07:14.791Z,44.67
2017-02-24T00:07:19.437Z,44.77
2017-02-24T00:07:24.068Z,44.67
2017-02-24T00:07:28.723Z,44.67
2017-02-24T00:07:33.097Z,44.77
2017-02-24T00:07:37.581Z,44.77
2017-02-24T00:07:42.235Z,44.77
2017-02-24T00:07:46.871Z,44.29
2017-02-24T00:07:51.526Z,44.38
2017-02-24T00:07:56.187Z,44.48
2017-02-24T00:08:00.824Z,44.58
2017-02-24T00:08:05.555Z,44.77
2017-02-24T00:08:09.932Z,44.48
2017-02-24T00:08:14.462Z,44.27
2017-02-24T00:08:19.092Z,44.38
2017-02-24T00:08:23.713Z,44.48
2017-02-24T00:08:28.241Z,44.77
2017-02-24T00:08:32.746Z,44.29
2017-02-24T00:08:37.274Z,44.77
2017-02-24T00:08:41.928Z,44.65
2017-02-24T00:08:46.564Z,44.74
2017-02-24T00:08:51.226Z,44.27
2017-02-24T00:08:55.881Z,44.84
2017-02-24T00:09:00.533Z,44.74
2017-02-24T00:09:05.139Z,45.06
2017-02-24T00:09:09.668Z,44.94
2017-02-24T00:09:14.160Z,45.22
2017-02-24T00:09:18.810Z,45.43
2017-02-24T00:09:23.297Z,45.34
2017-02-24T00:09:27.966Z,45.25
2017-02-24T00:09:32.612Z,45.43
2017-02-24T00:09:37.294Z,45.34
2017-02-24T00:09:41.789Z,45.15
2017-02-24T00:09:46.316Z,45.25
2017-02-24T00:09:50.964Z,45.15
2017-02-24T00:09:55.466Z,45.25
2017-02-24T00:10:00.124Z,45.06
2017-02-24T00:10:04.620Z,45.43
2017-02-24T00:10:09.104Z,45.34
2017-02-24T00:10:13.303Z,45.34
2017-02-24T00:10:17.942Z,45.43
2017-02-24T00:10:22.593Z,45.42
2017-02-24T00:10:27.228Z,45.32
2017-02-24T00:10:31.865Z,45.22
2017-02-24T00:10:36.519Z,45.53
2017-02-24T00:10:41.155Z,45.32
2017-02-24T00:10:45.805Z,45.43
2017-02-24T00:10:50.448Z,45.15
2017-02-24T00:10:55.072Z,45.25
2017-02-24T00:10:59.719Z,45.15
2017-02-24T00:11:04.223Z,45.34
2017-02-24T00:11:08.865Z,45.25
2017-02-24T00:11:13.349Z,44.87
2017-02-24T00:11:17.853Z,44.94
2017-02-24T00:11:22.511Z,44.87
2017-02-24T00:11:27.161Z,45.13
2017-02-24T00:11:31.814Z,45.13
2017-02-24T00:11:36.485Z,45.15
2017-02-24T00:11:41.013Z,45.06
2017-02-24T00:11:45.671Z,44.94
2017-02-24T00:11:50.318Z,45.22
2017-02-24T00:11:54.959Z,44.96
2017-02-24T00:11:59.616Z,45.03
2017-02-24T00:12:04.102Z,45.22
2017-02-24T00:12:08.610Z,45.25
2017-02-24T00:12:13.139Z,45.42
2017-02-24T00:12:17.617Z,45.51
2017-02-24T00:12:22.286Z,45.53
2017-02-24T00:12:26.817Z,45.53
2017-02-24T00:12:31.455Z,45.51
2017-02-24T00:12:35.972Z,45.61
2017-02-24T00:12:40.612Z,45.61
2017-02-24T00:12:45.251Z,45.34
2017-02-24T00:12:49.910Z,45.43
2017-02-24T00:12:54.565Z,45.34
2017-02-24T00:12:59.232Z,45.25
2017-02-24T00:13:04.086Z,45.7
2017-02-24T00:13:08.746Z,45.51
2017-02-24T00:13:13.229Z,45.7
2017-02-24T00:13:17.578Z,45.61
2017-02-24T00:13:22.287Z,45.79
2017-02-24T00:13:26.800Z,45.7
2017-02-24T00:13:31.459Z,45.43
2017-02-24T00:13:36.103Z,46.01
2017-02-24T00:13:40.750Z,46.27
2017-02-24T00:13:45.271Z,46.37
2017-02-24T00:13:49.907Z,45.99
2017-02-24T00:13:54.553Z,46.08
2017-02-24T00:13:59.211Z,45.99
2017-02-24T00:14:03.714Z,46.3
2017-02-24T00:14:08.356Z,45.79
2017-02-24T00:14:12.596Z,45.82
2017-02-24T00:14:17.242Z,45.51
2017-02-24T00:14:21.871Z,45.7
2017-02-24T00:14:26.365Z,45.79
2017-02-24T00:14:31.056Z,45.79
2017-02-24T00:14:35.699Z,45.89
2017-02-24T00:14:40.355Z,45.7
2017-02-24T00:14:44.996Z,45.72
2017-02-24T00:14:49.645Z,45.51
2017-02-24T00:14:54.136Z,45.51
2017-02-24T00:14:58.772Z,45.42
2017-02-24T00:15:03.436Z,45.61
2017-02-24T00:15:08.069Z,45.32
2017-02-24T00:15:12.740Z,45.32
2017-02-24T00:15:17.082Z,45.32
2017-02-24T00:15:21.709Z,45.42
2017-02-24T00:15:26.373Z,45.42
2017-02-24T00:15:31.069Z,45.51
2017-02-24T00:15:35.742Z,45.51
2017-02-24T00:15:40.390Z,45.89
2017-02-24T00:15:45.040Z,45.89
2017-02-24T00:15:49.688Z,45.79
2017-02-24T00:15:54.344Z,45.61
2017-02-24T00:15:58.998Z,45.51
2017-02-24T00:16:03.784Z,45.42
2017-02-24T00:16:08.436Z,45.79
2017-02-24T00:16:12.953Z,46.27
2017-02-24T00:16:17.605Z,46.18
2017-02-24T00:16:22.230Z,46.08
2017-02-24T00:16:26.753Z,45.99
2017-02-24T00:16:31.252Z,45.99
2017-02-24T00:16:35.916Z,45.99
2017-02-24T00:16:40.568Z,45.79
2017-02-24T00:16:45.068Z,45.89
2017-02-24T00:16:49.725Z,45.79
2017-02-24T00:16:54.373Z,46.08
2017-02-24T00:16:59.018Z,46.08
2017-02-24T00:17:03.610Z,46.27
2017-02-24T00:17:08.097Z,45.42
2017-02-24T00:17:12.655Z,45.61
2017-02-24T00:17:17.010Z,45.51
2017-02-24T00:17:21.662Z,45.61
2017-02-24T00:17:26.315Z,45.7
2017-02-24T00:17:30.967Z,45.7
2017-02-24T00:17:35.646Z,45.79
2017-02-24T00:17:40.297Z,45.82
2017-02-24T00:17:44.956Z,45.72
2017-02-24T00:17:49.605Z,45.89
2017-02-24T00:17:54.255Z,45.82
2017-02-24T00:17:58.788Z,45.61
2017-02-24T00:18:03.543Z,45.7
2017-02-24T00:18:08.187Z,45.79
2017-02-24T00:18:12.535Z,45.79
2017-02-24T00:18:17.179Z,45.79
2017-02-24T00:18:21.834Z,45.79
2017-02-24T00:18:26.494Z,45.61
2017-02-24T00:18:31.146Z,45.7
2017-02-24T00:18:35.798Z,45.99
2017-02-24T00:18:40.441Z,45.99
2017-02-24T00:18:45.097Z,45.89
2017-02-24T00:18:49.732Z,45.99
2017-02-24T00:18:54.384Z,45.89
2017-02-24T00:18:59.028Z,45.79
2017-02-24T00:19:03.975Z,45.7
2017-02-24T00:19:08.604Z,45.61
2017-02-24T00:19:13.243Z,45.99
2017-02-24T00:19:17.909Z,45.7
2017-02-24T00:19:22.558Z,46.47
2017-02-24T00:19:27.197Z,45.99
2017-02-24T00:19:31.843Z,45.7
2017-02-24T00:19:36.346Z,45.42
2017-02-24T00:19:41.001Z,45.51
2017-02-24T00:19:45.522Z,46.08
2017-02-24T00:19:50.162Z,45.99
2017-02-24T00:19:54.812Z,46.08
2017-02-24T00:19:59.449Z,45.99
2017-02-24T00:20:04.235Z,45.99
2017-02-24T00:20:08.750Z,45.99
2017-02-24T00:20:13.116Z,46.18
2017-02-24T00:20:17.774Z,46.08
2017-02-24T00:20:22.446Z,46.18
2017-02-24T00:20:27.087Z,46.08
2017-02-24T00:20:31.717Z,46.18
2017-02-24T00:20:36.371Z,46.27
2017-02-24T00:20:41.010Z,45.61
2017-02-24T00:20:45.639Z,45.99
2017-02-24T00:20:50.282Z,45.99
2017-02-24T00:20:54.950Z,45.99
2017-02-24T00:20:59.629Z,45.51
2017-02-24T00:21:04.165Z,45.42
2017-02-24T00:21:08.666Z,45.51
2017-02-24T00:21:13.167Z,45.61
2017-02-24T00:21:17.834Z,45.61
2017-02-24T00:21:22.485Z,45.61
2017-02-24T00:21:27.119Z,45.61
2017-02-24T00:21:31.764Z,45.61
2017-02-24T00:21:36.424Z,45.61
2017-02-24T00:21:40.907Z,45.61
2017-02-24T00:21:45.538Z,45.61
2017-02-24T00:21:50.204Z,45.42
2017-02-24T00:21:54.842Z,45.61
2017-02-24T00:21:59.509Z,45.89
2017-02-24T00:22:04.040Z,46.18
2017-02-24T00:22:08.542Z,45.99
2017-02-24T00:22:12.745Z,46.18
2017-02-24T00:22:17.240Z,46.18
2017-02-24T00:22:21.897Z,46.08
2017-02-24T00:22:26.395Z,46.08
2017-02-24T00:22:31.035Z,45.99
2017-02-24T00:22:35.677Z,45.99
2017-02-24T00:22:40.167Z,45.89
2017-02-24T00:22:44.654Z,46.27
2017-02-24T00:22:49.288Z,46.27
2017-02-24T00:22:53.947Z,46.56
2017-02-24T00:22:58.433Z,47.23
2017-02-24T00:23:03.243Z,47.13
2017-02-24T00:23:07.927Z,46.84
2017-02-24T00:23:12.443Z,46.75
2017-02-24T00:23:17.183Z,47.23
2017-02-24T00:23:21.828Z,47.23
2017-02-24T00:23:26.326Z,46.66
2017-02-24T00:23:30.978Z,46.27
2017-02-24T00:23:35.640Z,46.18
2017-02-24T00:23:40.276Z,46.18
2017-02-24T00:23:44.906Z,46.08
2017-02-24T00:23:49.559Z,46.27
2017-02-24T00:23:54.214Z,46.18
2017-02-24T00:23:58.860Z,45.89
2017-02-24T00:24:03.601Z,46.08
2017-02-24T00:24:08.076Z,46.08
2017-02-24T00:24:12.560Z,46.18
2017-02-24T00:24:16.899Z,45.79
2017-02-24T00:24:21.545Z,45.79
2017-02-24T00:24:26.186Z,45.79
2017-02-24T00:24:30.827Z,45.89
2017-02-24T00:24:35.472Z,45.79
2017-02-24T00:24:40.114Z,45.79
2017-02-24T00:24:44.471Z,45.7
2017-02-24T00:24:49.164Z,45.7
2017-02-24T00:24:53.808Z,45.99
2017-02-24T00:24:58.464Z,45.89
2017-02-24T00:25:03.136Z,45.89
2017-02-24T00:25:07.633Z,45.89
2017-02-24T00:25:12.143Z,46.08
2017-02-24T00:25:16.779Z,45.89
2017-02-24T00:25:21.420Z,45.79
2017-02-24T00:25:26.066Z,45.99
2017-02-24T00:25:30.709Z,45.99
2017-02-24T00:25:35.346Z,46.08
2017-02-24T00:25:39.989Z,46.08
2017-02-24T00:25:44.676Z,46.08
2017-02-24T00:25:49.309Z,46.27
2017-02-24T00:25:53.800Z,46.94
2017-02-24T00:25:58.451Z,46.94
2017-02-24T00:26:03.302Z,47.32
2017-02-24T00:26:07.784Z,47.32
2017-02-24T00:26:12.295Z,47.52
2017-02-24T00:26:16.643Z,47.52
2017-02-24T00:26:21.303Z,47.42
2017-02-24T00:26:25.951Z,47.52
2017-02-24T00:26:30.640Z,47.71
2017-02-24T00:26:35.284Z,47.61
2017-02-24T00:26:39.923Z,47.52
2017-02-24T00:26:44.581Z,47.52
2017-02-24T00:26:49.227Z,47.52
2017-02-24T00:26:53.877Z,48.28
2017-02-24T00:26:58.578Z,48.18
2017-02-24T00:27:03.373Z,48.28
2017-02-24T00:27:07.866Z,48.18
2017-02-24T00:27:12.230Z,48.08
2017-02-24T00:27:16.750Z,48.08
2017-02-24T00:27:21.435Z,48.18
2017-02-24T00:27:25.938Z,48.18
2017-02-24T00:27:30.602Z,48.18
2017-02-24T00:27:35.240Z,48.18
2017-02-24T00:27:39.756Z,48.37
2017-02-24T00:27:44.271Z,48.37
2017-02-24T00:27:48.912Z,48.75
2017-02-24T00:27:53.564Z,48.75
2017-02-24T00:27:58.209Z,48.85
2017-02-24T00:28:02.848Z,49.13
2017-02-24T00:28:07.380Z,49.23
2017-02-24T00:28:11.889Z,49.04
2017-02-24T00:28:16.393Z,49.71
2017-02-24T00:28:21.038Z,49.62
2017-02-24T00:28:25.690Z,49.42
2017-02-24T00:28:30.335Z,49.42
2017-02-24T00:28:35.007Z,49.33
2017-02-24T00:28:39.652Z,49.42
2017-02-24T00:28:44.334Z,49.71
2017-02-24T00:28:48.969Z,49.99
2017-02-24T00:28:53.613Z,49.9
2017-02-24T00:28:58.263Z,49.99
2017-02-24T00:29:03.117Z,50.09
2017-02-24T00:29:07.791Z,49.9
2017-02-24T00:29:12.290Z,50.18
2017-02-24T00:29:16.789Z,50.09
2017-02-24T00:29:21.428Z,50.45
2017-02-24T00:29:26.076Z,50.38
2017-02-24T00:29:30.711Z,50.54
2017-02-24T00:29:35.341Z,50.63
2017-02-24T00:29:39.685Z,50.45
2017-02-24T00:29:44.337Z,50.45
2017-02-24T00:29:48.988Z,50.54
2017-02-24T00:29:53.643Z,50.45
2017-02-24T00:29:58.287Z,50.83
2017-02-24T00:30:03.088Z,50.73
2017-02-24T00:30:07.579Z,50.92
2017-02-24T00:30:12.074Z,50.92
2017-02-24T00:30:16.774Z,51.02
2017-02-24T00:30:21.428Z,50.83
2017-02-24T00:30:25.924Z,50.83
2017-02-24T00:30:30.577Z,50.83
2017-02-24T00:30:35.079Z,50.83
2017-02-24T00:30:39.718Z,50.92
2017-02-24T00:30:44.381Z,50.92
2017-02-24T00:30:49.036Z,51.12
2017-02-24T00:30:53.680Z,51.12
2017-02-24T00:30:58.337Z,50.92
2017-02-24T00:31:03.077Z,50.63
2017-02-24T00:31:07.565Z,51.31
2017-02-24T00:31:12.064Z,51.02
2017-02-24T00:31:16.603Z,51.21
2017-02-24T00:31:21.252Z,51.02
2017-02-24T00:31:25.904Z,51.21
2017-02-24T00:31:30.542Z,51.21
2017-02-24T00:31:35.040Z,51.02
2017-02-24T00:31:39.528Z,51.5
2017-02-24T00:31:44.182Z,51.21
2017-02-24T00:31:48.825Z,51.12
2017-02-24T00:31:53.485Z,51.5
2017-02-24T00:31:58.110Z,51.47
2017-02-24T00:32:02.779Z,51.68
2017-02-24T00:32:07.307Z,51.5
2017-02-24T00:32:11.843Z,51.76
2017-02-24T00:32:16.334Z,51.88
2017-02-24T00:32:20.973Z,51.66
2017-02-24T00:32:25.616Z,52.33
2017-02-24T00:32:30.264Z,52.14
2017-02-24T00:32:34.922Z,52.14
2017-02-24T00:32:39.306Z,52.14
2017-02-24T00:32:43.814Z,52.33
2017-02-24T00:32:48.456Z,52.52
2017-02-24T00:32:53.099Z,52.52
2017-02-24T00:32:57.756Z,52.23
2017-02-24T00:33:02.552Z,52.04
2017-02-24T00:33:07.213Z,52.42
2017-02-24T00:33:11.559Z,52.71
2017-02-24T00:33:15.901Z,52.52
2017-02-24T00:33:20.527Z,52.9
2017-02-24T00:33:25.018Z,53.09
2017-02-24T00:33:29.658Z,52.71
2017-02-24T00:33:34.301Z,53.09
2017-02-24T00:33:38.955Z,53.19
2017-02-24T00:33:43.623Z,53.38
2017-02-24T00:33:48.274Z,53.09
2017-02-24T00:33:52.913Z,53.19
2017-02-24T00:33:57.559Z,53.28
2017-02-24T00:34:02.203Z,53.28
2017-02-24T00:34:06.701Z,53.76
2017-02-24T00:34:11.199Z,53.85
2017-02-24T00:34:15.687Z,53.66
2017-02-24T00:34:20.373Z,53.83
2017-02-24T00:34:24.865Z,54.02
2017-02-24T00:34:29.495Z,54.11
2017-02-24T00:34:33.974Z,53.85
2017-02-24T00:34:38.614Z,54.04
2017-02-24T00:34:43.117Z,54.21
2017-02-24T00:34:47.789Z,54.61
2017-02-24T00:34:52.420Z,54.68
2017-02-24T00:34:57.080Z,54.88
2017-02-24T00:35:02.069Z,54.78
2017-02-24T00:35:06.713Z,54.97
2017-02-24T00:35:11.057Z,54.97
2017-02-24T00:35:15.555Z,54.88
2017-02-24T00:35:20.209Z,54.97
2017-02-24T00:35:24.849Z,55.35
2017-02-24T00:35:29.495Z,55.16
2017-02-24T00:35:34.146Z,55.07
2017-02-24T00:35:38.797Z,55.07
2017-02-24T00:35:43.141Z,55.16
2017-02-24T00:35:47.795Z,55.07
2017-02-24T00:35:52.438Z,55.35
2017-02-24T00:35:57.070Z,54.97
2017-02-24T00:36:01.598Z,55.26
2017-02-24T00:36:06.571Z,55.16
2017-02-24T00:36:11.220Z,54.97
2017-02-24T00:36:15.869Z,54.88
2017-02-24T00:36:20.500Z,55.26
2017-02-24T00:36:25.151Z,55.07
2017-02-24T00:36:29.801Z,55.35
2017-02-24T00:36:34.431Z,55.16
2017-02-24T00:36:39.069Z,55.16
2017-02-24T00:36:43.694Z,55.35
2017-02-24T00:36:48.351Z,55.51
2017-02-24T00:36:53.011Z,55.32
2017-02-24T00:36:57.666Z,55.32
2017-02-24T00:37:02.314Z,55.92
2017-02-24T00:37:06.815Z,55.8
2017-02-24T00:37:11.350Z,55.61
2017-02-24T00:37:15.852Z,55.61
2017-02-24T00:37:20.491Z,55.7
2017-02-24T00:37:25.130Z,56.37
2017-02-24T00:37:29.779Z,56.27
2017-02-24T00:37:34.430Z,56.18
2017-02-24T00:37:39.076Z,56.09
2017-02-24T00:37:43.577Z,56.09
2017-02-24T00:37:48.225Z,55.9
2017-02-24T00:37:52.870Z,56.18
2017-02-24T00:37:57.498Z,56.27
2017-02-24T00:38:01.981Z,55.99
2017-02-24T00:38:06.523Z,56.46
2017-02-24T00:38:10.874Z,56.85
2017-02-24T00:38:15.385Z,56.94
2017-02-24T00:38:20.013Z,56.65
2017-02-24T00:38:24.662Z,56.75
2017-02-24T00:38:29.312Z,56.75
2017-02-24T00:38:33.965Z,56.94
2017-02-24T00:38:38.598Z,57.1
2017-02-24T00:38:43.089Z,57.1
2017-02-24T00:38:47.712Z,57.1
2017-02-24T00:38:52.374Z,57.2
2017-02-24T00:38:57.018Z,57.39
2017-02-24T00:39:01.664Z,57.58
2017-02-24T00:39:06.303Z,57.39
2017-02-24T00:39:10.787Z,57.39
2017-02-24T00:39:15.155Z,57.39
2017-02-24T00:39:19.804Z,57.96
2017-02-24T00:39:24.312Z,57.87
2017-02-24T00:39:28.810Z,57.67
2017-02-24T00:39:33.466Z,57.58
2017-02-24T00:39:38.104Z,57.96
2017-02-24T00:39:42.450Z,57.67
2017-02-24T00:39:47.107Z,58.25
2017-02-24T00:39:51.744Z,58.25
2017-02-24T00:39:56.408Z,58.25
2017-02-24T00:40:01.062Z,58.15
2017-02-24T00:40:05.843Z,58.15
2017-02-24T00:40:10.054Z,57.87
2017-02-24T00:40:14.552Z,58.62
2017-02-24T00:40:19.202Z,58.25
2017-02-24T00:40:23.858Z,58.34
2017-02-24T00:40:28.505Z,58.44
2017-02-24T00:40:33.151Z,58.62
2017-02-24T00:40:37.797Z,58.34
2017-02-24T00:40:41.887Z,58.62
2017-02-24T00:40:46.542Z,58.53
2017-02-24T00:40:51.192Z,58.62
2017-02-24T00:40:55.831Z,59.01
2017-02-24T00:41:00.470Z,59.01
2017-02-24T00:41:05.153Z,59.39
2017-02-24T00:41:09.631Z,59.27
2017-02-24T00:41:13.993Z,59.1
2017-02-24T00:41:18.645Z,59.39
2017-02-24T00:41:23.290Z,58.98
2017-02-24T00:41:27.943Z,59.01
2017-02-24T00:41:32.576Z,59.1
2017-02-24T00:41:37.205Z,59.07
2017-02-24T00:41:41.870Z,59.58
2017-02-24T00:41:46.347Z,59.48
2017-02-24T00:41:51.005Z,59.55
2017-02-24T00:41:55.661Z,59.36
2017-02-24T00:42:00.306Z,59.45
2017-02-24T00:42:04.790Z,59.27
2017-02-24T00:42:09.297Z,59.45
2017-02-24T00:42:13.933Z,59.27
2017-02-24T00:42:18.424Z,59.45
2017-02-24T00:42:23.091Z,59.55
2017-02-24T00:42:27.730Z,59.45
2017-02-24T00:42:32.384Z,59.83
2017-02-24T00:42:37.032Z,59.74
2017-02-24T00:42:41.387Z,59.83
2017-02-24T00:42:46.043Z,59.74
2017-02-24T00:42:50.699Z,60.02
2017-02-24T00:42:55.339Z,59.83
2017-02-24T00:43:00.022Z,59.93
2017-02-24T00:43:04.523Z,59.93
2017-02-24T00:43:09.017Z,60.02
2017-02-24T00:43:13.657Z,60.31
2017-02-24T00:43:18.359Z,60.21
2017-02-24T00:43:23.004Z,60.02
2017-02-24T00:43:27.647Z,60.5
2017-02-24T00:43:32.278Z,60.5
2017-02-24T00:43:36.935Z,60.5
2017-02-24T00:43:41.443Z,60.41
2017-02-24T00:43:46.077Z,60.31
2017-02-24T00:43:50.719Z,60.41
2017-02-24T00:43:55.344Z,60.41
2017-02-24T00:44:00.002Z,60.21
2017-02-24T00:44:04.542Z,60.5
2017-02-24T00:44:09.043Z,60.41
2017-02-24T00:44:13.384Z,60.41
2017-02-24T00:44:18.026Z,60.12
2017-02-24T00:44:22.675Z,60.6
2017-02-24T00:44:27.163Z,60.31
2017-02-24T00:44:31.800Z,60.31
2017-02-24T00:44:36.445Z,60.97
2017-02-24T00:44:41.075Z,60.41
2017-02-24T00:44:45.564Z,60.41
2017-02-24T00:44:50.215Z,60.97
2017-02-24T00:44:54.915Z,60.88
2017-02-24T00:44:59.544Z,60.97
2017-02-24T00:45:04.186Z,61.26
2017-02-24T00:45:08.696Z,61.16
2017-02-24T00:45:13.199Z,60.97
2017-02-24T00:45:17.856Z,61.74
2017-02-24T00:45:22.252Z,61.64
2017-02-24T00:45:26.902Z,61.64
2017-02-24T00:45:31.545Z,61.35
2017-02-24T00:45:36.196Z,61.45
2017-02-24T00:45:40.711Z,61.55
2017-02-24T00:45:45.359Z,61.16
2017-02-24T00:45:49.994Z,61.55
2017-02-24T00:45:54.653Z,61.35
2017-02-24T00:45:59.296Z,61.55
2017-02-24T00:46:03.779Z,61.55
2017-02-24T00:46:08.129Z,61.45
2017-02-24T00:46:12.467Z,61.45
2017-02-24T00:46:16.953Z,61.35
2017-02-24T00:46:21.616Z,61.26
2017-02-24T00:46:26.262Z,61.16
2017-02-24T00:46:30.896Z,61.64
2017-02-24T00:46:35.546Z,61.35
2017-02-24T00:46:40.237Z,61.35
2017-02-24T00:46:44.733Z,61.45
2017-02-24T00:46:49.223Z,61.55
2017-02-24T00:46:53.872Z,61.55
2017-02-24T00:46:58.510Z,61.35
2017-02-24T00:47:03.149Z,61.45
2017-02-24T00:47:07.789Z,61.55
2017-02-24T00:47:12.423Z,61.55
2017-02-24T00:47:16.962Z,61.55
2017-02-24T00:47:21.604Z,61.35
2017-02-24T00:47:26.238Z,61.35
2017-02-24T00:47:30.879Z,61.32
2017-02-24T00:47:35.529Z,61.16
2017-02-24T00:47:40.014Z,61.45
2017-02-24T00:47:44.663Z,61.26
2017-02-24T00:47:49.308Z,61.45
2017-02-24T00:47:53.957Z,61.64
2017-02-24T00:47:58.627Z,61.55
2017-02-24T00:48:03.537Z,61.9
2017-02-24T00:48:08.051Z,61.71
2017-02-24T00:48:12.557Z,61.8
2017-02-24T00:48:16.909Z,61.8
2017-02-24T00:48:22.602Z,62.02
2017-02-24T00:48:27.238Z,61.99
2017-02-24T00:48:31.862Z,62.08
2017-02-24T00:48:36.502Z,62.18
2017-02-24T00:48:40.865Z,61.9
2017-02-24T00:48:45.516Z,62.37
2017-02-24T00:48:50.162Z,62.4
2017-02-24T00:48:54.798Z,62.27
2017-02-24T00:48:59.460Z,62.18
2017-02-24T00:49:04.243Z,62.27
2017-02-24T00:49:08.749Z,62.18
2017-02-24T00:49:13.087Z,62.27
2017-02-24T00:49:17.721Z,62.27
2017-02-24T00:49:22.209Z,62.18
2017-02-24T00:49:26.702Z,62.27
2017-02-24T00:49:31.359Z,62.37
2017-02-24T00:49:36.018Z,62.08
2017-02-24T00:49:40.655Z,62.56
2017-02-24T00:49:45.138Z,62.27
2017-02-24T00:49:49.792Z,62.18
2017-02-24T00:49:54.306Z,62.27
2017-02-24T00:49:58.935Z,62.75
2017-02-24T00:50:03.431Z,62.56
2017-02-24T00:50:07.788Z,62.85
2017-02-24T00:50:12.268Z,62.56
2017-02-24T00:50:16.921Z,62.85
2017-02-24T00:50:21.567Z,62.65
2017-02-24T00:50:26.210Z,62.65
2017-02-24T00:50:30.840Z,62.94
2017-02-24T00:50:35.468Z,62.37
2017-02-24T00:50:40.117Z,62.65
2017-02-24T00:50:44.776Z,62.75
2017-02-24T00:50:49.401Z,62.75
2017-02-24T00:50:54.066Z,62.75
2017-02-24T00:50:58.714Z,62.65
2017-02-24T00:51:03.510Z,62.65
2017-02-24T00:51:08.150Z,62.85
2017-02-24T00:51:12.812Z,62.85
2017-02-24T00:51:17.329Z,62.65
2017-02-24T00:51:22.009Z,62.65
2017-02-24T00:51:26.488Z,62.65
2017-02-24T00:51:31.124Z,62.65
2017-02-24T00:51:35.767Z,62.75
2017-02-24T00:51:40.259Z,62.65
2017-02-24T00:51:44.766Z,62.75
2017-02-24T00:51:49.405Z,62.65
2017-02-24T00:51:54.053Z,62.75
2017-02-24T00:51:58.683Z,62.75
2017-02-24T00:52:03.390Z,62.65
2017-02-24T00:52:08.038Z,62.65
2017-02-24T00:52:12.399Z,62.65
2017-02-24T00:52:17.048Z,62.75
2017-02-24T00:52:21.714Z,62.65
2017-02-24T00:52:26.354Z,62.75
2017-02-24T00:52:30.991Z,63.13
2017-02-24T00:52:35.627Z,62.75
2017-02-24T00:52:40.301Z,63.13
2017-02-24T00:52:44.787Z,63.23
2017-02-24T00:52:49.409Z,63.23
2017-02-24T00:52:54.059Z,63.13
2017-02-24T00:52:58.707Z,62.75
2017-02-24T00:53:03.612Z,63.13
2017-02-24T00:53:08.267Z,62.85
2017-02-24T00:53:12.608Z,62.75
2017-02-24T00:53:17.110Z,62.56
2017-02-24T00:53:22.053Z,62.65
2017-02-24T00:53:26.691Z,62.65
2017-02-24T00:53:31.355Z,62.65
2017-02-24T00:53:35.985Z,62.65
2017-02-24T00:53:40.342Z,62.75
2017-02-24T00:53:44.986Z,63.23
2017-02-24T00:53:49.619Z,62.46
2017-02-24T00:53:54.263Z,62.46
2017-02-24T00:53:58.772Z,63.23
2017-02-24T00:54:03.410Z,63.13
2017-02-24T00:54:07.914Z,63.23
2017-02-24T00:54:12.548Z,63.13
2017-02-24T00:54:16.915Z,63.04
2017-02-24T00:54:21.556Z,63.04
2017-02-24T00:54:26.220Z,63.13
2017-02-24T00:54:30.896Z,63.04
2017-02-24T00:54:35.541Z,62.94
2017-02-24T00:54:40.037Z,62.94
2017-02-24T00:54:44.522Z,63.23
2017-02-24T00:54:49.170Z,62.85
2017-02-24T00:54:53.817Z,63.23
2017-02-24T00:54:58.459Z,62.85
2017-02-24T00:55:03.276Z,62.75
2017-02-24T00:55:07.760Z,62.94
2017-02-24T00:55:12.276Z,63.13
2017-02-24T00:55:16.794Z,62.85
2017-02-24T00:55:21.436Z,62.85
2017-02-24T00:55:25.952Z,63.04
2017-02-24T00:55:30.592Z,63.04
2017-02-24T00:55:35.239Z,62.75
2017-02-24T00:55:39.889Z,62.94
2017-02-24T00:55:44.533Z,62.75
2017-02-24T00:55:49.163Z,62.94
2017-02-24T00:55:53.803Z,62.94
2017-02-24T00:55:58.454Z,62.94
2017-02-24T00:56:02.970Z,62.94
2017-02-24T00:56:07.462Z,62.94
2017-02-24T00:56:11.797Z,62.85
2017-02-24T00:56:16.131Z,62.94
2017-02-24T00:56:20.774Z,62.94
2017-02-24T00:56:25.432Z,63.13
2017-02-24T00:56:30.072Z,63.32
2017-02-24T00:56:34.710Z,63.42
2017-02-24T00:56:39.359Z,63.42
2017-02-24T00:56:43.991Z,63.42
2017-02-24T00:56:48.662Z,63.42
2017-02-24T00:56:53.313Z,63.04
2017-02-24T00:56:57.953Z,63.42
2017-02-24T00:57:02.846Z,63.42
2017-02-24T00:57:07.471Z,63.04
2017-02-24T00:57:11.972Z,63.42
2017-02-24T00:57:16.325Z,63.42
2017-02-24T00:57:20.977Z,63.42
2017-02-24T00:57:25.603Z,63.23
2017-02-24T00:57:30.240Z,63.42
2017-02-24T00:57:34.874Z,63.42
2017-02-24T00:57:39.368Z,63.51
2017-02-24T00:57:44.063Z,63.51
2017-02-24T00:57:48.720Z,63.7
2017-02-24T00:57:53.357Z,63.7
2017-02-24T00:57:58.019Z,63.51
2017-02-24T00:58:02.648Z,63.6
2017-02-24T00:58:07.286Z,63.6
2017-02-24T00:58:11.939Z,63.51
2017-02-24T00:58:16.304Z,63.51
2017-02-24T00:58:20.949Z,63.51
2017-02-24T00:58:25.733Z,63.7
2017-02-24T00:58:30.397Z,63.51
2017-02-24T00:58:35.037Z,63.51
2017-02-24T00:58:39.532Z,63.7
2017-02-24T00:58:44.032Z,63.42
2017-02-24T00:58:48.667Z,63.51
2017-02-24T00:58:53.327Z,63.42
2017-02-24T00:58:57.980Z,63.42
2017-02-24T00:59:02.674Z,63.23
2017-02-24T00:59:07.301Z,63.42
2017-02-24T00:59:11.797Z,63.51
2017-02-24T00:59:16.132Z,63.42
2017-02-24T00:59:20.780Z,63.42
2017-02-24T00:59:25.301Z,63.51